Dade — WDF6950 — position and weather

sailwx.info

Track history (hours):
 
Tides and Currents Weather Stations Pressure Air Temp Water Temp Dewpoint Dewpoint Depression Visibility Wind Speed Wind Dir Waves Ship Positions

Dade

Owner: Kirby Inland Marine LP, Houston, TX. More information available from US FCC via Universal Licensing System and Coast Guard Vessel Documentation Center.

Last reported at 2017-Nov-18 04:28 UTC. Time now 2017-Nov-18 04:58 UTC.
Position N 25°46' W 080°10'.

Length 93 m; draft 3.7 m.

Type: Tug. MMSI: 367479540.

Date/timePositionNaut miles runAvg speedWind from/ knotsBaromVisibWave heightAir tempDewpointWater temp
2017-Nov-18 04:28N 25°46' W 080°10'0 0.0
2017-Nov-18 03:58N 25°46' W 080°10'0 0.0
2017-Nov-18 03:22N 25°46' W 080°10'0 0.0
2017-Nov-18 02:55N 25°46' W 080°10'0 0.0
2017-Nov-18 02:28N 25°46' W 080°10'0 0.0
2017-Nov-18 01:58N 25°46' W 080°10'0 0.0
2017-Nov-18 01:22N 25°46' W 080°10'0 0.0
2017-Nov-18 00:58N 25°46' W 080°10'0 0.0
2017-Nov-18 00:28N 25°46' W 080°10'0 0.0
2017-Nov-17 23:58N 25°46' W 080°10'0 0.0
2017-Nov-17 23:28N 25°46' W 080°10'0 0.0
2017-Nov-17 22:58N 25°46' W 080°10'0 0.0
2017-Nov-17 22:28N 25°46' W 080°10'0 0.0
2017-Nov-17 21:58N 25°46' W 080°10'0 0.0
2017-Nov-17 21:28N 25°46' W 080°10'0 0.0
2017-Nov-17 20:58N 25°46' W 080°10'1 1.5
2017-Nov-17 20:30N 25°47' W 080°10'1 1.5
2017-Nov-17 19:59N 25°47' W 080°10'0 0.7
2017-Nov-17 19:30N 25°47' W 080°10'1 1.9
2017-Nov-17 19:00N 25°46' W 080°09'1 1.8
2017-Nov-17 18:29N 25°47' W 080°10'0 0.0
2017-Nov-17 17:59N 25°47' W 080°10'0 0.0
2017-Nov-17 17:29N 25°47' W 080°10'0 0.0
2017-Nov-17 16:59N 25°47' W 080°10'0 0.0
2017-Nov-17 16:29N 25°47' W 080°10'0 0.0
2017-Nov-17 15:59N 25°47' W 080°10'0 0.0
2017-Nov-17 15:29N 25°47' W 080°10'0 0.0
2017-Nov-17 14:59N 25°47' W 080°10'0 0.0
2017-Nov-17 14:29N 25°47' W 080°10'0 0.0
2017-Nov-17 13:59N 25°47' W 080°10'0 0.0
2017-Nov-17 13:29N 25°47' W 080°10'0 0.0
2017-Nov-17 12:59N 25°47' W 080°10'0 0.7
2017-Nov-17 12:30N 25°47' W 080°11'0 0.0
2017-Nov-17 11:58N 25°47' W 080°11'0 0.0
2017-Nov-17 11:25N 25°47' W 080°11'0 0.0
2017-Nov-17 10:58N 25°47' W 080°11'0 0.0
2017-Nov-17 10:25N 25°47' W 080°11'0 0.0
2017-Nov-17 09:55N 25°47' W 080°11'0 0.0
2017-Nov-17 09:25N 25°47' W 080°11'0 0.0
2017-Nov-17 08:58N 25°47' W 080°11'0 0.0
2017-Nov-17 08:28N 25°47' W 080°11'0 0.0
2017-Nov-17 07:58N 25°47' W 080°11'0 0.0
2017-Nov-17 07:28N 25°47' W 080°11'0 0.0
2017-Nov-17 06:55N 25°47' W 080°11'0 0.0
2017-Nov-17 06:25N 25°47' W 080°11'0 0.0
2017-Nov-17 05:55N 25°47' W 080°11'0 0.0
2017-Nov-17 05:28N 25°47' W 080°11'0 0.0
2017-Nov-17 04:58N 25°47' W 080°11'0 0.0
2017-Nov-17 04:28N 25°47' W 080°11'0 0.0
2017-Nov-17 03:58N 25°47' W 080°11'0 0.0
2017-Nov-17 03:25N 25°47' W 080°11'0 0.0
2017-Nov-17 02:58N 25°47' W 080°11'0 0.0
2017-Nov-17 02:28N 25°47' W 080°11'0 0.0
2017-Nov-17 01:58N 25°47' W 080°11'0 0.0
2017-Nov-17 01:28N 25°47' W 080°11'0 0.0
2017-Nov-17 00:58N 25°47' W 080°11'0 0.0
2017-Nov-17 00:28N 25°47' W 080°11'0 0.0
2017-Nov-16 23:58N 25°47' W 080°11'0 0.0
2017-Nov-16 23:28N 25°47' W 080°11'2 4.0
2017-Nov-16 22:58N 25°46' W 080°08'0 0.2
2017-Nov-16 22:28N 25°46' W 080°08'0 0.0
2017-Nov-16 21:58N 25°46' W 080°08'0 0.0
2017-Nov-16 21:28N 25°46' W 080°08'0 0.0
2017-Nov-16 20:58N 25°46' W 080°08'0 0.0
2017-Nov-16 20:28N 25°46' W 080°08'0 0.0
2017-Nov-16 19:58N 25°46' W 080°08'1 3.0
2017-Nov-16 19:31N 25°46' W 080°10'1 1.3
2017-Nov-16 18:59N 25°46' W 080°11'0 0.0
2017-Nov-16 18:29N 25°46' W 080°11'0 0.0
2017-Nov-16 17:59N 25°46' W 080°11'0 0.5
2017-Nov-16 17:30N 25°46' W 080°10'2 2.8
2017-Nov-16 16:52N 25°46' W 080°08'1 3.4
2017-Nov-16 16:30N 25°46' W 080°10'1 1.5
2017-Nov-16 15:58N 25°46' W 080°11'0 0.0
2017-Nov-16 15:28N 25°46' W 080°11'0 0.0
2017-Nov-16 14:58N 25°46' W 080°11'0 0.0
2017-Nov-16 14:28N 25°46' W 080°11'0 0.0
2017-Nov-16 13:58N 25°46' W 080°11'0 0.0
2017-Nov-16 13:28N 25°46' W 080°11'0 0.0
2017-Nov-16 12:58N 25°46' W 080°11'0 0.0
2017-Nov-16 12:28N 25°46' W 080°11'0 0.0
2017-Nov-16 11:58N 25°46' W 080°11'0 0.0
2017-Nov-16 11:28N 25°46' W 080°11'0 0.0
2017-Nov-16 10:55N 25°46' W 080°11'0 0.0
2017-Nov-16 10:28N 25°46' W 080°11'0 0.0
2017-Nov-16 09:58N 25°46' W 080°11'0 0.0
2017-Nov-16 09:25N 25°46' W 080°11'0 0.0
2017-Nov-16 08:58N 25°46' W 080°11'0 0.0
2017-Nov-16 08:28N 25°46' W 080°11'0 0.0
2017-Nov-16 07:58N 25°46' W 080°11'0 0.0
2017-Nov-16 07:28N 25°46' W 080°11'0 0.0
2017-Nov-16 06:58N 25°46' W 080°11'0 0.0
2017-Nov-16 06:28N 25°46' W 080°11'0 0.0
2017-Nov-16 05:58N 25°46' W 080°11'0 0.0
2017-Nov-16 05:28N 25°46' W 080°11'0 0.0
2017-Nov-16 04:58N 25°46' W 080°11'0 0.0
2017-Nov-16 04:28N 25°46' W 080°11'0 0.0
2017-Nov-16 03:58N 25°46' W 080°11'0 0.0
2017-Nov-16 03:30N 25°46' W 080°11'0 0.0
2017-Nov-16 02:58N 25°46' W 080°11'0 0.0
2017-Nov-16 02:28N 25°46' W 080°11'0 0.0
2017-Nov-16 01:58N 25°46' W 080°11'0 0.0
2017-Nov-16 01:28N 25°46' W 080°11'0 0.0
2017-Nov-16 00:58N 25°46' W 080°11'2 4.4
2017-Nov-16 00:31N 25°46' W 080°08'0 0.2
2017-Nov-16 00:01N 25°46' W 080°09'2 3.0
2017-Nov-15 23:28N 25°46' W 080°10'0 0.0
2017-Nov-15 22:58N 25°46' W 080°10'0 0.0
2017-Nov-15 22:28N 25°46' W 080°10'0 0.0
2017-Nov-15 21:55N 25°46' W 080°10'0 0.0
2017-Nov-15 21:25N 25°46' W 080°10'0 0.0
2017-Nov-15 20:58N 25°46' W 080°10'0 0.0
2017-Nov-15 20:25N 25°46' W 080°10'0 0.3
2017-Nov-15 20:01N 25°46' W 080°10'2 3.0
2017-Nov-15 19:29N 25°46' W 080°08'0 0.0
2017-Nov-15 18:59N 25°46' W 080°08'0 0.0
2017-Nov-15 18:29N 25°46' W 080°08'0 0.0
2017-Nov-15 17:59N 25°46' W 080°08'1 1.6
2017-Nov-15 17:30N 25°46' W 080°09'0 1.0
2017-Nov-15 17:00N 25°46' W 080°09'0 0.6
2017-Nov-15 16:29N 25°46' W 080°08'2 4.0
2017-Nov-15 16:00N 25°46' W 080°11'0 0.0
2017-Nov-15 15:24N 25°46' W 080°11'0 0.0
2017-Nov-15 15:00N 25°46' W 080°11'0 0.0
2017-Nov-15 14:30N 25°46' W 080°11'0 0.0
2017-Nov-15 14:00N 25°46' W 080°11'0 0.0
2017-Nov-15 13:31N 25°46' W 080°11'0 0.0
2017-Nov-15 13:00N 25°46' W 080°11'2 3.5
2017-Nov-15 12:29N 25°46' W 080°09'0 0.0
2017-Nov-15 11:59N 25°46' W 080°09'0 0.0
2017-Nov-15 11:23N 25°46' W 080°09'0 0.0
2017-Nov-15 10:59N 25°46' W 080°09'0 0.0
2017-Nov-15 10:25N 25°46' W 080°09'0 0.0
2017-Nov-15 09:55N 25°46' W 080°09'0 0.0
2017-Nov-15 09:28N 25°46' W 080°09'0 0.0
2017-Nov-15 08:58N 25°46' W 080°09'0 0.0
2017-Nov-15 08:28N 25°46' W 080°09'0 0.0
2017-Nov-15 07:55N 25°46' W 080°09'0 0.0
2017-Nov-15 07:28N 25°46' W 080°09'0 0.0
2017-Nov-15 06:58N 25°46' W 080°09'0 0.0
2017-Nov-15 06:28N 25°46' W 080°09'0 0.0
2017-Nov-15 05:52N 25°46' W 080°09'0 0.0
2017-Nov-15 05:28N 25°46' W 080°09'0 0.0
2017-Nov-15 04:52N 25°46' W 080°09'0 0.0
2017-Nov-15 04:28N 25°46' W 080°09'0 0.0
2017-Nov-15 03:58N 25°46' W 080°09'0 0.0
2017-Nov-15 03:28N 25°46' W 080°09'0 0.0
2017-Nov-15 02:49N 25°46' W 080°09'0 0.0
2017-Nov-15 02:28N 25°46' W 080°09'0 0.0
2017-Nov-15 01:58N 25°46' W 080°09'0 0.0
2017-Nov-15 01:28N 25°46' W 080°09'0 0.0
2017-Nov-15 00:58N 25°46' W 080°09'0 0.0
2017-Nov-15 00:30N 25°46' W 080°09'0 0.0
2017-Nov-15 00:00N 25°46' W 080°09'0 0.0
2017-Nov-14 23:30N 25°46' W 080°09'0 0.3
2017-Nov-14 23:00N 25°46' W 080°08'1 2.5
2017-Nov-14 22:30N 25°46' W 080°10'1 1.1
2017-Nov-14 22:00N 25°46' W 080°09'2 3.0
2017-Nov-14 21:27N 25°47' W 080°11'0 0.0
2017-Nov-14 20:57N 25°47' W 080°11'0 0.0
2017-Nov-14 20:30N 25°47' W 080°11'0 0.0
2017-Nov-14 19:57N 25°47' W 080°11'0 0.0
2017-Nov-14 19:30N 25°47' W 080°11'0 0.0
2017-Nov-14 19:00N 25°47' W 080°11'0 0.0
2017-Nov-14 18:30N 25°47' W 080°11'0 0.0
2017-Nov-14 17:54N 25°47' W 080°11'0 0.0
2017-Nov-14 17:30N 25°47' W 080°11'0 0.0
2017-Nov-14 17:00N 25°47' W 080°11'0 0.0
2017-Nov-14 16:30N 25°47' W 080°11'0 0.0
2017-Nov-14 16:00N 25°47' W 080°11'0 0.0
2017-Nov-14 15:30N 25°47' W 080°11'0 0.0
2017-Nov-14 15:00N 25°47' W 080°11'0 0.0
2017-Nov-14 14:30N 25°47' W 080°11'0 0.0
2017-Nov-14 14:00N 25°47' W 080°11'0 0.0
2017-Nov-14 13:27N 25°47' W 080°11'0 0.0
2017-Nov-14 12:57N 25°47' W 080°11'0 0.0
2017-Nov-14 12:30N 25°47' W 080°11'0 0.0
2017-Nov-14 12:00N 25°47' W 080°11'0 0.0
2017-Nov-14 11:30N 25°47' W 080°11'0 0.0
2017-Nov-14 11:00N 25°47' W 080°11'0 0.0
2017-Nov-14 10:30N 25°47' W 080°11'0 0.0
2017-Nov-14 10:00N 25°47' W 080°11'0 0.0
2017-Nov-14 09:30N 25°47' W 080°11'0 0.0
2017-Nov-14 09:00N 25°47' W 080°11'0 0.0
2017-Nov-14 08:31N 25°47' W 080°11'0 0.0
2017-Nov-14 08:00N 25°47' W 080°11'0 0.0
2017-Nov-14 07:30N 25°47' W 080°11'0 0.0
2017-Nov-14 07:00N 25°47' W 080°11'0 0.0
2017-Nov-14 06:31N 25°47' W 080°11'0 0.0
2017-Nov-14 06:01N 25°47' W 080°11'0 0.0
2017-Nov-14 05:31N 25°47' W 080°11'0 0.0
2017-Nov-14 05:00N 25°47' W 080°11'0 0.0
2017-Nov-14 04:30N 25°47' W 080°11'0 0.0
2017-Nov-14 04:01N 25°47' W 080°11'0 0.0
2017-Nov-14 03:30N 25°47' W 080°11'0 0.0
2017-Nov-14 03:00N 25°47' W 080°11'0 0.0
2017-Nov-14 02:31N 25°47' W 080°11'0 0.0
2017-Nov-14 02:01N 25°47' W 080°11'0 0.0
2017-Nov-14 01:31N 25°47' W 080°11'0 0.0
2017-Nov-14 01:00N 25°47' W 080°11'0 0.0
2017-Nov-14 00:31N 25°47' W 080°11'0 0.0
2017-Nov-14 00:01N 25°47' W 080°11'0 0.0
2017-Nov-13 23:30N 25°47' W 080°11'0 0.0
2017-Nov-13 23:00N 25°47' W 080°11'0 0.0
2017-Nov-13 22:30N 25°47' W 080°11'0 0.0
2017-Nov-13 22:01N 25°47' W 080°11'1 0.1
2017-Nov-13 01:58N 25°46' W 080°10'0 0.0
2017-Nov-13 01:28N 25°46' W 080°10'0 0.0
2017-Nov-13 00:58N 25°46' W 080°10'0 0.0
2017-Nov-13 00:28N 25°46' W 080°10'0 0.0
2017-Nov-12 23:58N 25°46' W 080°10'0 0.0
2017-Nov-12 23:28N 25°46' W 080°10'0 0.0
2017-Nov-12 22:58N 25°46' W 080°10'0 0.0
2017-Nov-12 22:28N 25°46' W 080°10'0 0.0
2017-Nov-12 21:58N 25°46' W 080°10'0 0.0
2017-Nov-12 21:28N 25°46' W 080°10'0 0.0
2017-Nov-12 20:58N 25°46' W 080°10'0 0.0
2017-Nov-12 20:28N 25°46' W 080°10'0 0.0
2017-Nov-12 19:58N 25°46' W 080°10'0 0.0
2017-Nov-12 19:28N 25°46' W 080°10'0 0.0
2017-Nov-12 18:55N 25°46' W 080°10'0 0.0
2017-Nov-12 18:28N 25°46' W 080°10'0 0.0
2017-Nov-12 17:58N 25°46' W 080°10'0 0.0
2017-Nov-12 17:25N 25°46' W 080°10'0 1.0
2017-Nov-12 16:56N 25°47' W 080°10'0 0.0
2017-Nov-12 16:29N 25°47' W 080°10'0 0.0
2017-Nov-12 16:00N 25°47' W 080°10'0 0.0
2017-Nov-12 15:30N 25°47' W 080°10'0 0.0
2017-Nov-12 15:00N 25°47' W 080°10'0 0.0
2017-Nov-12 14:30N 25°47' W 080°10'0 0.0
2017-Nov-12 14:00N 25°47' W 080°10'0 0.0
2017-Nov-12 13:30N 25°47' W 080°10'0 0.0
2017-Nov-12 13:00N 25°47' W 080°10'0 0.5
2017-Nov-12 12:30N 25°47' W 080°10'0 0.4
2017-Nov-12 12:00N 25°46' W 080°10'0 0.0
2017-Nov-12 11:30N 25°46' W 080°10'0 0.0
2017-Nov-12 11:00N 25°46' W 080°10'0 0.0
2017-Nov-12 10:30N 25°46' W 080°10'0 0.0
2017-Nov-12 10:00N 25°46' W 080°10'0 0.0
2017-Nov-12 09:30N 25°46' W 080°10'0 0.0
2017-Nov-12 09:00N 25°46' W 080°10'0 0.0
2017-Nov-12 08:30N 25°46' W 080°10'0 0.0
2017-Nov-12 08:00N 25°46' W 080°10'0 0.0
2017-Nov-12 07:30N 25°46' W 080°10'0 0.0
2017-Nov-12 07:00N 25°46' W 080°10'0 0.0
2017-Nov-12 06:30N 25°46' W 080°10'0 0.0
2017-Nov-12 05:57N 25°46' W 080°10'0 0.0
2017-Nov-12 05:30N 25°46' W 080°10'0 0.0
2017-Nov-12 05:00N 25°46' W 080°10'0 0.0
2017-Nov-12 04:27N 25°46' W 080°10'0 0.0
2017-Nov-12 04:00N 25°46' W 080°10'0 0.0
2017-Nov-12 03:30N 25°46' W 080°10'0 0.0
2017-Nov-12 03:00N 25°46' W 080°10'0 0.0
2017-Nov-12 02:30N 25°46' W 080°10'0 0.0
2017-Nov-12 02:00N 25°46' W 080°10'0 0.0
2017-Nov-12 01:30N 25°46' W 080°10'0 0.0
2017-Nov-12 01:00N 25°46' W 080°10'0 0.0
2017-Nov-12 00:30N 25°46' W 080°10'0 0.0
2017-Nov-12 00:00N 25°46' W 080°10'0 0.0
2017-Nov-11 23:30N 25°46' W 080°10'0 0.0
2017-Nov-11 23:00N 25°46' W 080°10'0 0.0
2017-Nov-11 22:30N 25°46' W 080°10'0 0.0
2017-Nov-11 22:00N 25°46' W 080°10'0 0.0
2017-Nov-11 21:30N 25°46' W 080°10'1 1.0
2017-Nov-11 21:00N 25°46' W 080°09'0 0.9
2017-Nov-11 20:31N 25°46' W 080°09'1 1.3
2017-Nov-11 19:57N 25°47' W 080°10'0 0.0
2017-Nov-11 19:30N 25°47' W 080°10'0 0.0
2017-Nov-11 19:00N 25°47' W 080°10'0 0.0
2017-Nov-11 18:30N 25°47' W 080°10'0 0.0
2017-Nov-11 18:00N 25°47' W 080°10'0 0.0
2017-Nov-11 17:30N 25°47' W 080°10'0 0.0
2017-Nov-11 17:00N 25°47' W 080°10'0 0.0
2017-Nov-11 16:30N 25°47' W 080°10'0 0.0
2017-Nov-11 16:00N 25°47' W 080°10'0 0.0
2017-Nov-11 15:30N 25°47' W 080°10'0 0.0
2017-Nov-11 14:59N 25°47' W 080°10'0 0.0
2017-Nov-11 14:30N 25°47' W 080°10'0 0.0
2017-Nov-11 14:00N 25°47' W 080°10'0 0.0
2017-Nov-11 13:30N 25°47' W 080°10'0 0.0
2017-Nov-11 13:00N 25°47' W 080°10'0 0.3
2017-Nov-11 12:30N 25°46' W 080°10'0 0.0
2017-Nov-11 11:59N 25°46' W 080°10'0 0.0
2017-Nov-11 11:29N 25°46' W 080°10'0 0.0
2017-Nov-11 10:59N 25°46' W 080°10'0 0.0
2017-Nov-11 10:26N 25°46' W 080°10'0 0.0
2017-Nov-11 09:59N 25°46' W 080°10'0 0.0
2017-Nov-11 09:23N 25°46' W 080°10'0 0.0
2017-Nov-11 08:53N 25°46' W 080°10'0 0.0
2017-Nov-11 08:26N 25°46' W 080°10'0 0.0
2017-Nov-11 07:59N 25°46' W 080°10'0 0.0
2017-Nov-11 07:29N 25°46' W 080°10'0 0.0
2017-Nov-11 06:59N 25°46' W 080°10'0 0.0
2017-Nov-11 06:29N 25°46' W 080°10'0 0.0
2017-Nov-11 05:59N 25°46' W 080°10'0 0.0
2017-Nov-11 05:29N 25°46' W 080°10'0 0.0
2017-Nov-11 04:59N 25°46' W 080°10'0 0.0
2017-Nov-11 04:29N 25°46' W 080°10'0 0.0
2017-Nov-11 03:59N 25°46' W 080°10'0 0.0
2017-Nov-11 03:29N 25°46' W 080°10'0 0.0
2017-Nov-11 02:59N 25°46' W 080°10'0 0.0
2017-Nov-11 02:29N 25°46' W 080°10'0 0.0
2017-Nov-11 01:59N 25°46' W 080°10'0 0.0
2017-Nov-11 01:26N 25°46' W 080°10'0 0.0
2017-Nov-11 00:59N 25°46' W 080°10'0 0.0
2017-Nov-11 00:29N 25°46' W 080°10'0 0.0
2017-Nov-10 23:59N 25°46' W 080°10'0 0.0
2017-Nov-10 23:29N 25°46' W 080°10'0 0.0
2017-Nov-10 22:59N 25°46' W 080°10'0 0.0
2017-Nov-10 22:29N 25°46' W 080°10'0 0.0
2017-Nov-10 21:59N 25°46' W 080°10'1 1.1
2017-Nov-10 21:30N 25°47' W 080°10'1 1.0
2017-Nov-10 20:58N 25°47' W 080°11'0 0.0
2017-Nov-10 20:28N 25°47' W 080°11'0 0.0
2017-Nov-10 19:58N 25°47' W 080°11'0 0.0
2017-Nov-10 19:28N 25°47' W 080°11'0 0.0
2017-Nov-10 19:01N 25°47' W 080°11'0 0.0
2017-Nov-10 18:25N 25°47' W 080°11'0 0.0
2017-Nov-10 18:00N 25°47' W 080°11'0 0.0
2017-Nov-10 17:30N 25°47' W 080°11'0 0.0
2017-Nov-10 17:00N 25°47' W 080°11'0 0.0
2017-Nov-10 16:30N 25°47' W 080°11'0 0.0
2017-Nov-10 16:00N 25°47' W 080°11'0 0.0
2017-Nov-10 15:27N 25°47' W 080°11'0 0.0
2017-Nov-10 15:00N 25°47' W 080°11'0 0.0
2017-Nov-10 14:30N 25°47' W 080°11'0 0.0
2017-Nov-10 14:00N 25°47' W 080°11'0 0.0
2017-Nov-10 13:30N 25°47' W 080°11'0 0.0
2017-Nov-10 13:00N 25°47' W 080°11'0 0.0
2017-Nov-10 12:30N 25°47' W 080°11'0 0.0
2017-Nov-10 12:00N 25°47' W 080°11'0 0.0
2017-Nov-10 11:27N 25°47' W 080°11'0 0.0
2017-Nov-10 11:00N 25°47' W 080°11'0 0.0
2017-Nov-10 10:30N 25°47' W 080°11'0 0.0
2017-Nov-10 10:00N 25°47' W 080°11'0 0.0
2017-Nov-10 09:27N 25°47' W 080°11'0 0.0
2017-Nov-10 09:00N 25°47' W 080°11'0 0.0
2017-Nov-10 08:30N 25°47' W 080°11'0 0.0
2017-Nov-10 08:00N 25°47' W 080°11'0 0.0
2017-Nov-10 07:30N 25°47' W 080°11'0 0.0
2017-Nov-10 06:57N 25°47' W 080°11'0 0.0
2017-Nov-10 06:30N 25°47' W 080°11'0 0.0
2017-Nov-10 06:00N 25°47' W 080°11'0 0.0
2017-Nov-10 05:30N 25°47' W 080°11'0 0.0
2017-Nov-10 05:00N 25°47' W 080°11'0 0.0
2017-Nov-10 04:30N 25°47' W 080°11'0 0.0
2017-Nov-10 04:00N 25°47' W 080°11'0 0.0
2017-Nov-10 03:30N 25°47' W 080°11'0 0.0
2017-Nov-10 03:00N 25°47' W 080°11'0 0.0
2017-Nov-10 02:30N 25°47' W 080°11'0 0.0
2017-Nov-10 02:00N 25°47' W 080°11'0 0.0
2017-Nov-10 01:30N 25°47' W 080°11'0 0.0
2017-Nov-10 01:00N 25°47' W 080°11'0 0.0
2017-Nov-10 00:30N 25°47' W 080°11'0 0.0
2017-Nov-10 00:00N 25°47' W 080°11'0 0.0
2017-Nov-09 23:30N 25°47' W 080°11'0 0.0
2017-Nov-09 23:00N 25°47' W 080°11'1 2.1
2017-Nov-09 22:29N 25°46' W 080°10'0 0.0
2017-Nov-09 21:59N 25°46' W 080°10'0 0.0
2017-Nov-09 21:29N 25°46' W 080°10'1 1.8
2017-Nov-09 21:00N 25°47' W 080°11'0 0.2
2017-Nov-09 20:30N 25°47' W 080°10'2 3.9
2017-Nov-09 20:00N 25°46' W 080°09'0 0.0
2017-Nov-09 19:30N 25°46' W 080°09'1 2.4
2017-Nov-09 19:00N 25°46' W 080°10'1 1.6
2017-Nov-09 18:29N 25°46' W 080°11'0 0.0
2017-Nov-09 17:59N 25°46' W 080°11'0 0.0
2017-Nov-09 17:29N 25°46' W 080°11'0 0.0
2017-Nov-09 16:59N 25°46' W 080°11'0 0.0
2017-Nov-09 16:30N 25°46' W 080°11'0 0.0
2017-Nov-09 16:00N 25°46' W 080°11'0 0.0
2017-Nov-09 15:30N 25°46' W 080°11'0 0.0
2017-Nov-09 15:00N 25°46' W 080°11'0 0.0
2017-Nov-09 14:30N 25°46' W 080°11'0 0.0
2017-Nov-09 14:00N 25°46' W 080°11'0 0.0
2017-Nov-09 13:30N 25°46' W 080°11'0 0.0
2017-Nov-09 13:00N 25°46' W 080°11'1 1.6
2017-Nov-09 12:30N 25°46' W 080°10'0 0.0
2017-Nov-09 12:00N 25°46' W 080°10'0 0.0
2017-Nov-09 11:30N 25°46' W 080°10'0 0.0
2017-Nov-09 11:00N 25°46' W 080°10'0 0.0
2017-Nov-09 10:30N 25°46' W 080°10'0 0.0
2017-Nov-09 10:00N 25°46' W 080°10'0 0.0
2017-Nov-09 09:30N 25°46' W 080°10'0 0.0
2017-Nov-09 09:00N 25°46' W 080°10'0 0.0
2017-Nov-09 08:30N 25°46' W 080°10'0 0.0
2017-Nov-09 08:00N 25°46' W 080°10'0 0.0
2017-Nov-09 07:30N 25°46' W 080°10'0 0.0
2017-Nov-09 07:00N 25°46' W 080°10'0 0.0
2017-Nov-09 06:30N 25°46' W 080°10'0 0.0
2017-Nov-09 06:00N 25°46' W 080°10'0 0.0
2017-Nov-09 05:30N 25°46' W 080°10'0 0.0
2017-Nov-09 05:00N 25°46' W 080°10'0 0.0
2017-Nov-09 04:30N 25°46' W 080°10'0 0.0
2017-Nov-09 04:00N 25°46' W 080°10'0 0.0
2017-Nov-09 03:30N 25°46' W 080°10'0 0.0
2017-Nov-09 03:00N 25°46' W 080°10'0 0.0
2017-Nov-09 02:30N 25°46' W 080°10'0 0.0
2017-Nov-09 02:00N 25°46' W 080°10'0 0.0
2017-Nov-09 01:30N 25°46' W 080°10'0 0.0
2017-Nov-09 01:00N 25°46' W 080°10'0 0.1
2017-Nov-09 00:30N 25°46' W 080°10'0 0.2
2017-Nov-09 00:01N 25°46' W 080°10'1 1.7
2017-Nov-08 23:30N 25°46' W 080°11'0 0.0
2017-Nov-08 23:00N 25°46' W 080°11'0 0.0
2017-Nov-08 22:30N 25°46' W 080°11'0 0.0
2017-Nov-08 22:00N 25°46' W 080°11'0 0.0
2017-Nov-08 21:30N 25°46' W 080°11'0 0.0
2017-Nov-08 20:57N 25°46' W 080°11'0 0.0
2017-Nov-08 20:27N 25°46' W 080°11'0 0.0
2017-Nov-08 20:00N 25°46' W 080°11'0 0.0
2017-Nov-08 19:30N 25°46' W 080°11'0 0.0
2017-Nov-08 18:57N 25°46' W 080°11'0 0.0
2017-Nov-08 18:30N 25°46' W 080°11'0 0.0
2017-Nov-08 18:00N 25°46' W 080°11'0 0.0
2017-Nov-08 17:30N 25°46' W 080°11'0 0.0
2017-Nov-08 17:00N 25°46' W 080°11'0 0.0
2017-Nov-08 16:27N 25°46' W 080°11'0 0.0
2017-Nov-08 16:00N 25°46' W 080°11'0 0.0
2017-Nov-08 15:30N 25°46' W 080°11'0 0.0
2017-Nov-08 14:57N 25°46' W 080°11'0 0.0
2017-Nov-08 14:30N 25°46' W 080°11'0 0.0
2017-Nov-08 14:00N 25°46' W 080°11'0 0.0
2017-Nov-08 13:30N 25°46' W 080°11'0 0.0
2017-Nov-08 13:00N 25°46' W 080°11'0 0.0
2017-Nov-08 12:30N 25°46' W 080°11'0 0.0
2017-Nov-08 12:00N 25°46' W 080°11'0 0.0
2017-Nov-08 11:30N 25°46' W 080°11'0 0.0
2017-Nov-08 11:00N 25°46' W 080°11'0 0.0
2017-Nov-08 10:30N 25°46' W 080°11'0 0.0
2017-Nov-08 10:00N 25°46' W 080°11'0 0.0
2017-Nov-08 09:30N 25°46' W 080°11'0 0.0
2017-Nov-08 09:00N 25°46' W 080°11'0 0.0
2017-Nov-08 08:30N 25°46' W 080°11'0 0.0
2017-Nov-08 08:00N 25°46' W 080°11'0 0.0
2017-Nov-08 07:30N 25°46' W 080°11'0 0.0
2017-Nov-08 07:00N 25°46' W 080°11'0 0.0
2017-Nov-08 06:27N 25°46' W 080°11'0 0.0
2017-Nov-08 06:00N 25°46' W 080°11'0 0.0
2017-Nov-08 05:27N 25°46' W 080°11'0 0.0
2017-Nov-08 04:57N 25°46' W 080°11'0 0.0
2017-Nov-08 04:30N 25°46' W 080°11'  
Track history (hours):
 
Tides and Currents Weather Stations Pressure Air Temp Water Temp Dewpoint Dewpoint Depression Visibility Wind Speed Wind Dir Waves Ship Positions

Dade

Owner: Kirby Inland Marine LP, Houston, TX. More information available from US FCC via Universal Licensing System and Coast Guard Vessel Documentation Center.

Last reported at 2017-Nov-18 04:28 UTC. Time now 2017-Nov-18 04:58 UTC.
Position N 25°46' W 080°10'.

Length 93 m; draft 3.7 m.

Type: Tug. MMSI: 367479540.

Date/timePositionNaut miles runAvg speedWind from/ knotsBaromVisibWave heightAir tempDewpointWater temp
2017-Nov-18 04:28N 25°46' W 080°10'0 0.0
2017-Nov-18 03:58N 25°46' W 080°10'0 0.0
2017-Nov-18 03:22N 25°46' W 080°10'0 0.0
2017-Nov-18 02:55N 25°46' W 080°10'0 0.0
2017-Nov-18 02:28N 25°46' W 080°10'0 0.0
2017-Nov-18 01:58N 25°46' W 080°10'0 0.0
2017-Nov-18 01:22N 25°46' W 080°10'0 0.0
2017-Nov-18 00:58N 25°46' W 080°10'0 0.0
2017-Nov-18 00:28N 25°46' W 080°10'0 0.0
2017-Nov-17 23:58N 25°46' W 080°10'0 0.0
2017-Nov-17 23:28N 25°46' W 080°10'0 0.0
2017-Nov-17 22:58N 25°46' W 080°10'0 0.0
2017-Nov-17 22:28N 25°46' W 080°10'0 0.0
2017-Nov-17 21:58N 25°46' W 080°10'0 0.0
2017-Nov-17 21:28N 25°46' W 080°10'0 0.0
2017-Nov-17 20:58N 25°46' W 080°10'1 1.5
2017-Nov-17 20:30N 25°47' W 080°10'1 1.5
2017-Nov-17 19:59N 25°47' W 080°10'0 0.7
2017-Nov-17 19:30N 25°47' W 080°10'1 1.9
2017-Nov-17 19:00N 25°46' W 080°09'1 1.8
2017-Nov-17 18:29N 25°47' W 080°10'0 0.0
2017-Nov-17 17:59N 25°47' W 080°10'0 0.0
2017-Nov-17 17:29N 25°47' W 080°10'0 0.0
2017-Nov-17 16:59N 25°47' W 080°10'0 0.0
2017-Nov-17 16:29N 25°47' W 080°10'0 0.0
2017-Nov-17 15:59N 25°47' W 080°10'0 0.0
2017-Nov-17 15:29N 25°47' W 080°10'0 0.0
2017-Nov-17 14:59N 25°47' W 080°10'0 0.0
2017-Nov-17 14:29N 25°47' W 080°10'0 0.0
2017-Nov-17 13:59N 25°47' W 080°10'0 0.0
2017-Nov-17 13:29N 25°47' W 080°10'0 0.0
2017-Nov-17 12:59N 25°47' W 080°10'0 0.7
2017-Nov-17 12:30N 25°47' W 080°11'0 0.0
2017-Nov-17 11:58N 25°47' W 080°11'0 0.0
2017-Nov-17 11:25N 25°47' W 080°11'0 0.0
2017-Nov-17 10:58N 25°47' W 080°11'0 0.0
2017-Nov-17 10:25N 25°47' W 080°11'0 0.0
2017-Nov-17 09:55N 25°47' W 080°11'0 0.0
2017-Nov-17 09:25N 25°47' W 080°11'0 0.0
2017-Nov-17 08:58N 25°47' W 080°11'0 0.0
2017-Nov-17 08:28N 25°47' W 080°11'0 0.0
2017-Nov-17 07:58N 25°47' W 080°11'0 0.0
2017-Nov-17 07:28N 25°47' W 080°11'0 0.0
2017-Nov-17 06:55N 25°47' W 080°11'0 0.0
2017-Nov-17 06:25N 25°47' W 080°11'0 0.0
2017-Nov-17 05:55N 25°47' W 080°11'0 0.0
2017-Nov-17 05:28N 25°47' W 080°11'0 0.0
2017-Nov-17 04:58N 25°47' W 080°11'0 0.0
2017-Nov-17 04:28N 25°47' W 080°11'0 0.0
2017-Nov-17 03:58N 25°47' W 080°11'0 0.0
2017-Nov-17 03:25N 25°47' W 080°11'0 0.0
2017-Nov-17 02:58N 25°47' W 080°11'0 0.0
2017-Nov-17 02:28N 25°47' W 080°11'0 0.0
2017-Nov-17 01:58N 25°47' W 080°11'0 0.0
2017-Nov-17 01:28N 25°47' W 080°11'0 0.0
2017-Nov-17 00:58N 25°47' W 080°11'0 0.0
2017-Nov-17 00:28N 25°47' W 080°11'0 0.0
2017-Nov-16 23:58N 25°47' W 080°11'0 0.0
2017-Nov-16 23:28N 25°47' W 080°11'2 4.0
2017-Nov-16 22:58N 25°46' W 080°08'0 0.2
2017-Nov-16 22:28N 25°46' W 080°08'0 0.0
2017-Nov-16 21:58N 25°46' W 080°08'0 0.0
2017-Nov-16 21:28N 25°46' W 080°08'0 0.0
2017-Nov-16 20:58N 25°46' W 080°08'0 0.0
2017-Nov-16 20:28N 25°46' W 080°08'0 0.0
2017-Nov-16 19:58N 25°46' W 080°08'1 3.0
2017-Nov-16 19:31N 25°46' W 080°10'1 1.3
2017-Nov-16 18:59N 25°46' W 080°11'0 0.0
2017-Nov-16 18:29N 25°46' W 080°11'0 0.0
2017-Nov-16 17:59N 25°46' W 080°11'0 0.5
2017-Nov-16 17:30N 25°46' W 080°10'2 2.8
2017-Nov-16 16:52N 25°46' W 080°08'1 3.4
2017-Nov-16 16:30N 25°46' W 080°10'1 1.5
2017-Nov-16 15:58N 25°46' W 080°11'0 0.0
2017-Nov-16 15:28N 25°46' W 080°11'0 0.0
2017-Nov-16 14:58N 25°46' W 080°11'0 0.0
2017-Nov-16 14:28N 25°46' W 080°11'0 0.0
2017-Nov-16 13:58N 25°46' W 080°11'0 0.0
2017-Nov-16 13:28N 25°46' W 080°11'0 0.0
2017-Nov-16 12:58N 25°46' W 080°11'0 0.0
2017-Nov-16 12:28N 25°46' W 080°11'0 0.0
2017-Nov-16 11:58N 25°46' W 080°11'0 0.0
2017-Nov-16 11:28N 25°46' W 080°11'0 0.0
2017-Nov-16 10:55N 25°46' W 080°11'0 0.0
2017-Nov-16 10:28N 25°46' W 080°11'0 0.0
2017-Nov-16 09:58N 25°46' W 080°11'0 0.0
2017-Nov-16 09:25N 25°46' W 080°11'0 0.0
2017-Nov-16 08:58N 25°46' W 080°11'0 0.0
2017-Nov-16 08:28N 25°46' W 080°11'0 0.0
2017-Nov-16 07:58N 25°46' W 080°11'0 0.0
2017-Nov-16 07:28N 25°46' W 080°11'0 0.0
2017-Nov-16 06:58N 25°46' W 080°11'0 0.0
2017-Nov-16 06:28N 25°46' W 080°11'0 0.0
2017-Nov-16 05:58N 25°46' W 080°11'0 0.0
2017-Nov-16 05:28N 25°46' W 080°11'0 0.0
2017-Nov-16 04:58N 25°46' W 080°11'0 0.0
2017-Nov-16 04:28N 25°46' W 080°11'0 0.0
2017-Nov-16 03:58N 25°46' W 080°11'0 0.0
2017-Nov-16 03:30N 25°46' W 080°11'0 0.0
2017-Nov-16 02:58N 25°46' W 080°11'0 0.0
2017-Nov-16 02:28N 25°46' W 080°11'0 0.0
2017-Nov-16 01:58N 25°46' W 080°11'0 0.0
2017-Nov-16 01:28N 25°46' W 080°11'0 0.0
2017-Nov-16 00:58N 25°46' W 080°11'2 4.4
2017-Nov-16 00:31N 25°46' W 080°08'0 0.2
2017-Nov-16 00:01N 25°46' W 080°09'2 3.0
2017-Nov-15 23:28N 25°46' W 080°10'0 0.0
2017-Nov-15 22:58N 25°46' W 080°10'0 0.0
2017-Nov-15 22:28N 25°46' W 080°10'0 0.0
2017-Nov-15 21:55N 25°46' W 080°10'0 0.0
2017-Nov-15 21:25N 25°46' W 080°10'0 0.0
2017-Nov-15 20:58N 25°46' W 080°10'0 0.0
2017-Nov-15 20:25N 25°46' W 080°10'0 0.3
2017-Nov-15 20:01N 25°46' W 080°10'2 3.0
2017-Nov-15 19:29N 25°46' W 080°08'0 0.0
2017-Nov-15 18:59N 25°46' W 080°08'0 0.0
2017-Nov-15 18:29N 25°46' W 080°08'0 0.0
2017-Nov-15 17:59N 25°46' W 080°08'1 1.6
2017-Nov-15 17:30N 25°46' W 080°09'0 1.0
2017-Nov-15 17:00N 25°46' W 080°09'0 0.6
2017-Nov-15 16:29N 25°46' W 080°08'2 4.0
2017-Nov-15 16:00N 25°46' W 080°11'0 0.0
2017-Nov-15 15:24N 25°46' W 080°11'0 0.0
2017-Nov-15 15:00N 25°46' W 080°11'0 0.0
2017-Nov-15 14:30N 25°46' W 080°11'0 0.0
2017-Nov-15 14:00N 25°46' W 080°11'0 0.0
2017-Nov-15 13:31N 25°46' W 080°11'0 0.0
2017-Nov-15 13:00N 25°46' W 080°11'2 3.5
2017-Nov-15 12:29N 25°46' W 080°09'0 0.0
2017-Nov-15 11:59N 25°46' W 080°09'0 0.0
2017-Nov-15 11:23N 25°46' W 080°09'0 0.0
2017-Nov-15 10:59N 25°46' W 080°09'0 0.0
2017-Nov-15 10:25N 25°46' W 080°09'0 0.0
2017-Nov-15 09:55N 25°46' W 080°09'0 0.0
2017-Nov-15 09:28N 25°46' W 080°09'0 0.0
2017-Nov-15 08:58N 25°46' W 080°09'0 0.0
2017-Nov-15 08:28N 25°46' W 080°09'0 0.0
2017-Nov-15 07:55N 25°46' W 080°09'0 0.0
2017-Nov-15 07:28N 25°46' W 080°09'0 0.0
2017-Nov-15 06:58N 25°46' W 080°09'0 0.0
2017-Nov-15 06:28N 25°46' W 080°09'0 0.0
2017-Nov-15 05:52N 25°46' W 080°09'0 0.0
2017-Nov-15 05:28N 25°46' W 080°09'0 0.0
2017-Nov-15 04:52N 25°46' W 080°09'0 0.0
2017-Nov-15 04:28N 25°46' W 080°09'0 0.0
2017-Nov-15 03:58N 25°46' W 080°09'0 0.0
2017-Nov-15 03:28N 25°46' W 080°09'0 0.0
2017-Nov-15 02:49N 25°46' W 080°09'0 0.0
2017-Nov-15 02:28N 25°46' W 080°09'0 0.0
2017-Nov-15 01:58N 25°46' W 080°09'0 0.0
2017-Nov-15 01:28N 25°46' W 080°09'0 0.0
2017-Nov-15 00:58N 25°46' W 080°09'0 0.0
2017-Nov-15 00:30N 25°46' W 080°09'0 0.0
2017-Nov-15 00:00N 25°46' W 080°09'0 0.0
2017-Nov-14 23:30N 25°46' W 080°09'0 0.3
2017-Nov-14 23:00N 25°46' W 080°08'1 2.5
2017-Nov-14 22:30N 25°46' W 080°10'1 1.1
2017-Nov-14 22:00N 25°46' W 080°09'2 3.0
2017-Nov-14 21:27N 25°47' W 080°11'0 0.0
2017-Nov-14 20:57N 25°47' W 080°11'0 0.0
2017-Nov-14 20:30N 25°47' W 080°11'0 0.0
2017-Nov-14 19:57N 25°47' W 080°11'0 0.0
2017-Nov-14 19:30N 25°47' W 080°11'0 0.0
2017-Nov-14 19:00N 25°47' W 080°11'0 0.0
2017-Nov-14 18:30N 25°47' W 080°11'0 0.0
2017-Nov-14 17:54N 25°47' W 080°11'0 0.0
2017-Nov-14 17:30N 25°47' W 080°11'0 0.0
2017-Nov-14 17:00N 25°47' W 080°11'0 0.0
2017-Nov-14 16:30N 25°47' W 080°11'0 0.0
2017-Nov-14 16:00N 25°47' W 080°11'0 0.0
2017-Nov-14 15:30N 25°47' W 080°11'0 0.0
2017-Nov-14 15:00N 25°47' W 080°11'0 0.0
2017-Nov-14 14:30N 25°47' W 080°11'0 0.0
2017-Nov-14 14:00N 25°47' W 080°11'0 0.0
2017-Nov-14 13:27N 25°47' W 080°11'0 0.0
2017-Nov-14 12:57N 25°47' W 080°11'0 0.0
2017-Nov-14 12:30N 25°47' W 080°11'0 0.0
2017-Nov-14 12:00N 25°47' W 080°11'0 0.0
2017-Nov-14 11:30N 25°47' W 080°11'0 0.0
2017-Nov-14 11:00N 25°47' W 080°11'0 0.0
2017-Nov-14 10:30N 25°47' W 080°11'0 0.0
2017-Nov-14 10:00N 25°47' W 080°11'0 0.0
2017-Nov-14 09:30N 25°47' W 080°11'0 0.0
2017-Nov-14 09:00N 25°47' W 080°11'0 0.0
2017-Nov-14 08:31N 25°47' W 080°11'0 0.0
2017-Nov-14 08:00N 25°47' W 080°11'0 0.0
2017-Nov-14 07:30N 25°47' W 080°11'0 0.0
2017-Nov-14 07:00N 25°47' W 080°11'0 0.0
2017-Nov-14 06:31N 25°47' W 080°11'0 0.0
2017-Nov-14 06:01N 25°47' W 080°11'0 0.0
2017-Nov-14 05:31N 25°47' W 080°11'0 0.0
2017-Nov-14 05:00N 25°47' W 080°11'0 0.0
2017-Nov-14 04:30N 25°47' W 080°11'0 0.0
2017-Nov-14 04:01N 25°47' W 080°11'0 0.0
2017-Nov-14 03:30N 25°47' W 080°11'0 0.0
2017-Nov-14 03:00N 25°47' W 080°11'0 0.0
2017-Nov-14 02:31N 25°47' W 080°11'0 0.0
2017-Nov-14 02:01N 25°47' W 080°11'0 0.0
2017-Nov-14 01:31N 25°47' W 080°11'0 0.0
2017-Nov-14 01:00N 25°47' W 080°11'0 0.0
2017-Nov-14 00:31N 25°47' W 080°11'0 0.0
2017-Nov-14 00:01N 25°47' W 080°11'0 0.0
2017-Nov-13 23:30N 25°47' W 080°11'0 0.0
2017-Nov-13 23:00N 25°47' W 080°11'0 0.0
2017-Nov-13 22:30N 25°47' W 080°11'0 0.0
2017-Nov-13 22:01N 25°47' W 080°11'1 0.1
2017-Nov-13 01:58N 25°46' W 080°10'0 0.0
2017-Nov-13 01:28N 25°46' W 080°10'0 0.0
2017-Nov-13 00:58N 25°46' W 080°10'0 0.0
2017-Nov-13 00:28N 25°46' W 080°10'0 0.0
2017-Nov-12 23:58N 25°46' W 080°10'0 0.0
2017-Nov-12 23:28N 25°46' W 080°10'0 0.0
2017-Nov-12 22:58N 25°46' W 080°10'0 0.0
2017-Nov-12 22:28N 25°46' W 080°10'0 0.0
2017-Nov-12 21:58N 25°46' W 080°10'0 0.0
2017-Nov-12 21:28N 25°46' W 080°10'0 0.0
2017-Nov-12 20:58N 25°46' W 080°10'0 0.0
2017-Nov-12 20:28N 25°46' W 080°10'0 0.0
2017-Nov-12 19:58N 25°46' W 080°10'0 0.0
2017-Nov-12 19:28N 25°46' W 080°10'0 0.0
2017-Nov-12 18:55N 25°46' W 080°10'0 0.0
2017-Nov-12 18:28N 25°46' W 080°10'0 0.0
2017-Nov-12 17:58N 25°46' W 080°10'0 0.0
2017-Nov-12 17:25N 25°46' W 080°10'0 1.0
2017-Nov-12 16:56N 25°47' W 080°10'0 0.0
2017-Nov-12 16:29N 25°47' W 080°10'0 0.0
2017-Nov-12 16:00N 25°47' W 080°10'0 0.0
2017-Nov-12 15:30N 25°47' W 080°10'0 0.0
2017-Nov-12 15:00N 25°47' W 080°10'0 0.0
2017-Nov-12 14:30N 25°47' W 080°10'0 0.0
2017-Nov-12 14:00N 25°47' W 080°10'0 0.0
2017-Nov-12 13:30N 25°47' W 080°10'0 0.0
2017-Nov-12 13:00N 25°47' W 080°10'0 0.5
2017-Nov-12 12:30N 25°47' W 080°10'0 0.4
2017-Nov-12 12:00N 25°46' W 080°10'0 0.0
2017-Nov-12 11:30N 25°46' W 080°10'0 0.0
2017-Nov-12 11:00N 25°46' W 080°10'0 0.0
2017-Nov-12 10:30N 25°46' W 080°10'0 0.0
2017-Nov-12 10:00N 25°46' W 080°10'0 0.0
2017-Nov-12 09:30N 25°46' W 080°10'0 0.0
2017-Nov-12 09:00N 25°46' W 080°10'0 0.0
2017-Nov-12 08:30N 25°46' W 080°10'0 0.0
2017-Nov-12 08:00N 25°46' W 080°10'0 0.0
2017-Nov-12 07:30N 25°46' W 080°10'0 0.0
2017-Nov-12 07:00N 25°46' W 080°10'0 0.0
2017-Nov-12 06:30N 25°46' W 080°10'0 0.0
2017-Nov-12 05:57N 25°46' W 080°10'0 0.0
2017-Nov-12 05:30N 25°46' W 080°10'0 0.0
2017-Nov-12 05:00N 25°46' W 080°10'0 0.0
2017-Nov-12 04:27N 25°46' W 080°10'0 0.0
2017-Nov-12 04:00N 25°46' W 080°10'0 0.0
2017-Nov-12 03:30N 25°46' W 080°10'0 0.0
2017-Nov-12 03:00N 25°46' W 080°10'0 0.0
2017-Nov-12 02:30N 25°46' W 080°10'0 0.0
2017-Nov-12 02:00N 25°46' W 080°10'0 0.0
2017-Nov-12 01:30N 25°46' W 080°10'0 0.0
2017-Nov-12 01:00N 25°46' W 080°10'0 0.0
2017-Nov-12 00:30N 25°46' W 080°10'0 0.0
2017-Nov-12 00:00N 25°46' W 080°10'0 0.0
2017-Nov-11 23:30N 25°46' W 080°10'0 0.0
2017-Nov-11 23:00N 25°46' W 080°10'0 0.0
2017-Nov-11 22:30N 25°46' W 080°10'0 0.0
2017-Nov-11 22:00N 25°46' W 080°10'0 0.0
2017-Nov-11 21:30N 25°46' W 080°10'1 1.0
2017-Nov-11 21:00N 25°46' W 080°09'0 0.9
2017-Nov-11 20:31N 25°46' W 080°09'1 1.3
2017-Nov-11 19:57N 25°47' W 080°10'0 0.0
2017-Nov-11 19:30N 25°47' W 080°10'0 0.0
2017-Nov-11 19:00N 25°47' W 080°10'0 0.0
2017-Nov-11 18:30N 25°47' W 080°10'0 0.0
2017-Nov-11 18:00N 25°47' W 080°10'0 0.0
2017-Nov-11 17:30N 25°47' W 080°10'0 0.0
2017-Nov-11 17:00N 25°47' W 080°10'0 0.0
2017-Nov-11 16:30N 25°47' W 080°10'0 0.0
2017-Nov-11 16:00N 25°47' W 080°10'0 0.0
2017-Nov-11 15:30N 25°47' W 080°10'0 0.0
2017-Nov-11 14:59N 25°47' W 080°10'0 0.0
2017-Nov-11 14:30N 25°47' W 080°10'0 0.0
2017-Nov-11 14:00N 25°47' W 080°10'0 0.0
2017-Nov-11 13:30N 25°47' W 080°10'0 0.0
2017-Nov-11 13:00N 25°47' W 080°10'0 0.3
2017-Nov-11 12:30N 25°46' W 080°10'0 0.0
2017-Nov-11 11:59N 25°46' W 080°10'0 0.0
2017-Nov-11 11:29N 25°46' W 080°10'0 0.0
2017-Nov-11 10:59N 25°46' W 080°10'0 0.0
2017-Nov-11 10:26N 25°46' W 080°10'0 0.0
2017-Nov-11 09:59N 25°46' W 080°10'0 0.0
2017-Nov-11 09:23N 25°46' W 080°10'0 0.0
2017-Nov-11 08:53N 25°46' W 080°10'0 0.0
2017-Nov-11 08:26N 25°46' W 080°10'0 0.0
2017-Nov-11 07:59N 25°46' W 080°10'0 0.0
2017-Nov-11 07:29N 25°46' W 080°10'0 0.0
2017-Nov-11 06:59N 25°46' W 080°10'0 0.0
2017-Nov-11 06:29N 25°46' W 080°10'0 0.0
2017-Nov-11 05:59N 25°46' W 080°10'0 0.0
2017-Nov-11 05:29N 25°46' W 080°10'0 0.0
2017-Nov-11 04:59N 25°46' W 080°10'0 0.0
2017-Nov-11 04:29N 25°46' W 080°10'0 0.0
2017-Nov-11 03:59N 25°46' W 080°10'0 0.0
2017-Nov-11 03:29N 25°46' W 080°10'0 0.0
2017-Nov-11 02:59N 25°46' W 080°10'0 0.0
2017-Nov-11 02:29N 25°46' W 080°10'0 0.0
2017-Nov-11 01:59N 25°46' W 080°10'0 0.0
2017-Nov-11 01:26N 25°46' W 080°10'0 0.0
2017-Nov-11 00:59N 25°46' W 080°10'0 0.0
2017-Nov-11 00:29N 25°46' W 080°10'0 0.0
2017-Nov-10 23:59N 25°46' W 080°10'0 0.0
2017-Nov-10 23:29N 25°46' W 080°10'0 0.0
2017-Nov-10 22:59N 25°46' W 080°10'0 0.0
2017-Nov-10 22:29N 25°46' W 080°10'0 0.0
2017-Nov-10 21:59N 25°46' W 080°10'1 1.1
2017-Nov-10 21:30N 25°47' W 080°10'1 1.0
2017-Nov-10 20:58N 25°47' W 080°11'0 0.0
2017-Nov-10 20:28N 25°47' W 080°11'0 0.0
2017-Nov-10 19:58N 25°47' W 080°11'0 0.0
2017-Nov-10 19:28N 25°47' W 080°11'0 0.0
2017-Nov-10 19:01N 25°47' W 080°11'0 0.0
2017-Nov-10 18:25N 25°47' W 080°11'0 0.0
2017-Nov-10 18:00N 25°47' W 080°11'0 0.0
2017-Nov-10 17:30N 25°47' W 080°11'0 0.0
2017-Nov-10 17:00N 25°47' W 080°11'0 0.0
2017-Nov-10 16:30N 25°47' W 080°11'0 0.0
2017-Nov-10 16:00N 25°47' W 080°11'0 0.0
2017-Nov-10 15:27N 25°47' W 080°11'0 0.0
2017-Nov-10 15:00N 25°47' W 080°11'0 0.0
2017-Nov-10 14:30N 25°47' W 080°11'0 0.0
2017-Nov-10 14:00N 25°47' W 080°11'0 0.0
2017-Nov-10 13:30N 25°47' W 080°11'0 0.0
2017-Nov-10 13:00N 25°47' W 080°11'0 0.0
2017-Nov-10 12:30N 25°47' W 080°11'0 0.0
2017-Nov-10 12:00N 25°47' W 080°11'0 0.0
2017-Nov-10 11:27N 25°47' W 080°11'0 0.0
2017-Nov-10 11:00N 25°47' W 080°11'0 0.0
2017-Nov-10 10:30N 25°47' W 080°11'0 0.0
2017-Nov-10 10:00N 25°47' W 080°11'0 0.0
2017-Nov-10 09:27N 25°47' W 080°11'0 0.0
2017-Nov-10 09:00N 25°47' W 080°11'0 0.0
2017-Nov-10 08:30N 25°47' W 080°11'0 0.0
2017-Nov-10 08:00N 25°47' W 080°11'0 0.0
2017-Nov-10 07:30N 25°47' W 080°11'0 0.0
2017-Nov-10 06:57N 25°47' W 080°11'0 0.0
2017-Nov-10 06:30N 25°47' W 080°11'0 0.0
2017-Nov-10 06:00N 25°47' W 080°11'0 0.0
2017-Nov-10 05:30N 25°47' W 080°11'0 0.0
2017-Nov-10 05:00N 25°47' W 080°11'0 0.0
2017-Nov-10 04:30N 25°47' W 080°11'0 0.0
2017-Nov-10 04:00N 25°47' W 080°11'0 0.0
2017-Nov-10 03:30N 25°47' W 080°11'0 0.0
2017-Nov-10 03:00N 25°47' W 080°11'0 0.0
2017-Nov-10 02:30N 25°47' W 080°11'0 0.0
2017-Nov-10 02:00N 25°47' W 080°11'0 0.0
2017-Nov-10 01:30N 25°47' W 080°11'0 0.0
2017-Nov-10 01:00N 25°47' W 080°11'0 0.0
2017-Nov-10 00:30N 25°47' W 080°11'0 0.0
2017-Nov-10 00:00N 25°47' W 080°11'0 0.0
2017-Nov-09 23:30N 25°47' W 080°11'0 0.0
2017-Nov-09 23:00N 25°47' W 080°11'1 2.1
2017-Nov-09 22:29N 25°46' W 080°10'0 0.0
2017-Nov-09 21:59N 25°46' W 080°10'0 0.0
2017-Nov-09 21:29N 25°46' W 080°10'1 1.8
2017-Nov-09 21:00N 25°47' W 080°11'0 0.2
2017-Nov-09 20:30N 25°47' W 080°10'2 3.9
2017-Nov-09 20:00N 25°46' W 080°09'0 0.0
2017-Nov-09 19:30N 25°46' W 080°09'1 2.4
2017-Nov-09 19:00N 25°46' W 080°10'1 1.6
2017-Nov-09 18:29N 25°46' W 080°11'0 0.0
2017-Nov-09 17:59N 25°46' W 080°11'0 0.0
2017-Nov-09 17:29N 25°46' W 080°11'0 0.0
2017-Nov-09 16:59N 25°46' W 080°11'0 0.0
2017-Nov-09 16:30N 25°46' W 080°11'0 0.0
2017-Nov-09 16:00N 25°46' W 080°11'0 0.0
2017-Nov-09 15:30N 25°46' W 080°11'0 0.0
2017-Nov-09 15:00N 25°46' W 080°11'0 0.0
2017-Nov-09 14:30N 25°46' W 080°11'0 0.0
2017-Nov-09 14:00N 25°46' W 080°11'0 0.0
2017-Nov-09 13:30N 25°46' W 080°11'0 0.0
2017-Nov-09 13:00N 25°46' W 080°11'1 1.6
2017-Nov-09 12:30N 25°46' W 080°10'0 0.0
2017-Nov-09 12:00N 25°46' W 080°10'0 0.0
2017-Nov-09 11:30N 25°46' W 080°10'0 0.0
2017-Nov-09 11:00N 25°46' W 080°10'0 0.0
2017-Nov-09 10:30N 25°46' W 080°10'0 0.0
2017-Nov-09 10:00N 25°46' W 080°10'0 0.0
2017-Nov-09 09:30N 25°46' W 080°10'0 0.0
2017-Nov-09 09:00N 25°46' W 080°10'0 0.0
2017-Nov-09 08:30N 25°46' W 080°10'0 0.0
2017-Nov-09 08:00N 25°46' W 080°10'0 0.0
2017-Nov-09 07:30N 25°46' W 080°10'0 0.0
2017-Nov-09 07:00N 25°46' W 080°10'0 0.0
2017-Nov-09 06:30N 25°46' W 080°10'0 0.0
2017-Nov-09 06:00N 25°46' W 080°10'0 0.0
2017-Nov-09 05:30N 25°46' W 080°10'0 0.0
2017-Nov-09 05:00N 25°46' W 080°10'0 0.0
2017-Nov-09 04:30N 25°46' W 080°10'0 0.0
2017-Nov-09 04:00N 25°46' W 080°10'0 0.0
2017-Nov-09 03:30N 25°46' W 080°10'0 0.0
2017-Nov-09 03:00N 25°46' W 080°10'0 0.0
2017-Nov-09 02:30N 25°46' W 080°10'0 0.0
2017-Nov-09 02:00N 25°46' W 080°10'0 0.0
2017-Nov-09 01:30N 25°46' W 080°10'0 0.0
2017-Nov-09 01:00N 25°46' W 080°10'0 0.1
2017-Nov-09 00:30N 25°46' W 080°10'0 0.2
2017-Nov-09 00:01N 25°46' W 080°10'1 1.7
2017-Nov-08 23:30N 25°46' W 080°11'0 0.0
2017-Nov-08 23:00N 25°46' W 080°11'0 0.0
2017-Nov-08 22:30N 25°46' W 080°11'0 0.0
2017-Nov-08 22:00N 25°46' W 080°11'0 0.0
2017-Nov-08 21:30N 25°46' W 080°11'0 0.0
2017-Nov-08 20:57N 25°46' W 080°11'0 0.0
2017-Nov-08 20:27N 25°46' W 080°11'0 0.0
2017-Nov-08 20:00N 25°46' W 080°11'0 0.0
2017-Nov-08 19:30N 25°46' W 080°11'0 0.0
2017-Nov-08 18:57N 25°46' W 080°11'0 0.0
2017-Nov-08 18:30N 25°46' W 080°11'0 0.0
2017-Nov-08 18:00N 25°46' W 080°11'0 0.0
2017-Nov-08 17:30N 25°46' W 080°11'0 0.0
2017-Nov-08 17:00N 25°46' W 080°11'0 0.0
2017-Nov-08 16:27N 25°46' W 080°11'0 0.0
2017-Nov-08 16:00N 25°46' W 080°11'0 0.0
2017-Nov-08 15:30N 25°46' W 080°11'0 0.0
2017-Nov-08 14:57N 25°46' W 080°11'0 0.0
2017-Nov-08 14:30N 25°46' W 080°11'0 0.0
2017-Nov-08 14:00N 25°46' W 080°11'0 0.0
2017-Nov-08 13:30N 25°46' W 080°11'0 0.0
2017-Nov-08 13:00N 25°46' W 080°11'0 0.0
2017-Nov-08 12:30N 25°46' W 080°11'0 0.0
2017-Nov-08 12:00N 25°46' W 080°11'0 0.0
2017-Nov-08 11:30N 25°46' W 080°11'0 0.0
2017-Nov-08 11:00N 25°46' W 080°11'0 0.0
2017-Nov-08 10:30N 25°46' W 080°11'0 0.0
2017-Nov-08 10:00N 25°46' W 080°11'0 0.0
2017-Nov-08 09:30N 25°46' W 080°11'0 0.0
2017-Nov-08 09:00N 25°46' W 080°11'0 0.0
2017-Nov-08 08:30N 25°46' W 080°11'0 0.0
2017-Nov-08 08:00N 25°46' W 080°11'0 0.0
2017-Nov-08 07:30N 25°46' W 080°11'0 0.0
2017-Nov-08 07:00N 25°46' W 080°11'0 0.0
2017-Nov-08 06:27N 25°46' W 080°11'0 0.0
2017-Nov-08 06:00N 25°46' W 080°11'0 0.0
2017-Nov-08 05:27N 25°46' W 080°11'0 0.0
2017-Nov-08 04:57N 25°46' W 080°11'0 0.0
2017-Nov-08 04:30N 25°46' W 080°11'  

Dump ship's entire track history